Time;durP1;ratioP1;P1;durP2;ratioP2;P2;SDS_P1;SDS_P2;PMS_P1;PMS_P2;Temp;Humidity;BMP_temperature;BMP_pressure;BME280_temperature;BME280_humidity;BME280_pressure;Samples;Min_cycle;Max_cycle;Signal;HPM_P1;HPM_P2
2023/07/14 00:01:54;;;;;;;13.50;9.40;;;15.60;99.90;;;;;;5058789;28;20145;-70
2023/07/14 00:04:33;;;;;;;12.55;9.45;;;15.50;99.90;;;;;;5043138;28;20052;-69
2023/07/14 00:06:59;;;;;;;12.20;8.93;;;;;;;;;;5043419;28;20079;-69
2023/07/14 00:09:30;;;;;;;16.25;10.95;;;15.50;99.90;;;;;;5060441;28;20045;-70
2023/07/14 00:11:56;;;;;;;16.58;10.93;;;;;;;;;;5045751;28;20048;-69
2023/07/14 00:14:23;;;;;;;14.77;10.10;;;;;;;;;;5044398;28;20684;-69
2023/07/14 00:16:49;;;;;;;17.83;11.43;;;15.30;99.90;;;;;;5062550;28;20050;-70
2023/07/14 00:19:16;;;;;;;16.45;11.57;;;15.40;99.90;;;;;;5044302;28;20036;-70
2023/07/14 00:21:43;;;;;;;15.32;11.68;;;15.10;99.90;;;;;;5047715;28;20040;-69
2023/07/14 00:24:15;;;;;;;14.27;11.30;;;15.30;99.90;;;;;;5059707;28;20040;-70
2023/07/14 00:26:44;;;;;;;16.23;11.23;;;15.20;99.90;;;;;;5041937;28;20056;-69
2023/07/14 00:29:34;;;;;;;17.55;12.52;;;15.10;99.90;;;;;;5039473;28;20040;-70
2023/07/14 00:32:02;;;;;;;19.15;12.75;;;;;;;;;;5042935;28;20044;-70
2023/07/14 00:34:29;;;;;;;21.10;14.02;;;;;;;;;;5034545;28;20076;-69
2023/07/14 00:36:55;;;;;;;14.90;12.02;;;;;;;;;;5042630;28;20052;-69
2023/07/14 00:39:21;;;;;;;18.85;12.50;;;;;;;;;;5054642;28;20051;-68
2023/07/14 00:41:47;;;;;;;21.25;12.45;;;;;;;;;;5063653;28;20051;-69
2023/07/14 00:44:14;;;;;;;16.98;12.57;;;14.80;99.90;;;;;;5039991;28;20053;-71
2023/07/14 00:46:40;;;;;;;20.95;12.88;;;;;;;;;;5061260;28;20076;-71
2023/07/14 00:49:30;;;;;;;19.30;12.25;;;14.70;99.90;;;;;;5038089;28;20086;-71
2023/07/14 00:52:11;;;;;;;16.30;12.43;;;14.70;99.90;;;;;;5059126;28;20139;-70
2023/07/14 00:54:40;;;;;;;16.52;12.80;;;15.00;99.90;;;;;;5035385;28;20498;-70
2023/07/14 00:57:15;;;;;;;14.90;12.95;;;14.90;99.90;;;;;;5065538;28;20101;-72
2023/07/14 00:59:41;;;;;;;;;;;14.90;99.90;;;;;;5047276;28;20041;-70
2023/07/14 01:02:17;;;;;;;20.63;12.30;;;14.90;99.90;;;;;;5038432;28;19924;-71
2023/07/14 01:04:58;;;;;;;16.08;12.57;;;14.90;99.90;;;;;;5064402;28;20056;-70
2023/07/14 01:07:30;;;;;;;17.70;10.93;;;14.70;99.90;;;;;;5042399;28;20056;-70
2023/07/14 01:09:58;;;;;;;16.60;11.68;;;14.80;99.90;;;;;;5045379;28;20139;-70
2023/07/14 01:12:25;;;;;;;16.05;11.50;;;14.70;99.90;;;;;;5045792;28;20052;-70
2023/07/14 01:14:55;;;;;;;14.63;12.02;;;14.70;99.90;;;;;;5061816;28;20041;-70
2023/07/14 01:17:22;;;;;;;16.48;11.32;;;15.00;99.90;;;;;;5064444;28;20040;-71
2023/07/14 01:19:54;;;;;;;16.23;11.05;;;14.80;99.90;;;;;;5044935;28;20045;-70
2023/07/14 01:22:34;;;;;;;17.70;11.63;;;14.70;99.90;;;;;;5046980;28;20083;-70
2023/07/14 01:25:23;;;;;;;16.75;11.98;;;14.80;99.90;;;;;;5058046;28;20045;-70
2023/07/14 01:27:49;;;;;;;17.33;12.52;;;;;;;;;;5059266;28;20056;-70
2023/07/14 01:30:16;;;;;;;17.85;11.48;;;14.90;99.90;;;;;;5032355;28;20041;-70
2023/07/14 01:32:46;;;;;;;19.50;13.25;;;14.90;99.90;;;;;;5032600;28;20055;-71
2023/07/14 01:35:13;;;;;;;15.10;11.25;;;14.70;99.90;;;;;;5034855;28;20179;-72
2023/07/14 01:37:39;;;;;;;14.65;12.02;;;14.70;99.90;;;;;;5036014;28;20040;-70
2023/07/14 01:40:06;;;;;;;16.30;12.25;;;;;;;;;;5060910;28;20166;-71
2023/07/14 01:42:33;;;;;;;18.25;12.93;;;14.70;99.90;;;;;;5060724;28;20049;-70
2023/07/14 01:44:59;;;;;;;18.25;11.48;;;;;;;;;;5045734;28;20045;-70
2023/07/14 01:47:25;;;;;;;15.30;11.35;;;;;;;;;;5043962;28;20414;-70
2023/07/14 01:49:52;;;;;;;13.82;11.25;;;14.70;99.90;;;;;;5059144;28;20048;-71
2023/07/14 01:52:42;;;;;;;19.92;11.82;;;14.60;99.90;;;;;;5059883;28;20053;-70
2023/07/14 01:55:12;;;;;;;19.25;10.88;;;14.60;99.90;;;;;;5041702;28;20052;-71
2023/07/14 01:57:38;;;;;;;15.20;10.30;;;14.50;99.90;;;;;;5063131;28;20093;-71
2023/07/14 02:00:09;;;;;;;14.75;10.70;;;14.60;99.90;;;;;;5062039;28;20506;-71
2023/07/14 02:02:37;;;;;;;17.27;11.50;;;14.50;99.90;;;;;;5033326;28;20041;-70
2023/07/14 02:05:14;;;;;;;14.88;9.95;;;14.40;99.90;;;;;;5037788;28;20490;-70
2023/07/14 02:07:40;;;;;;;13.25;10.30;;;14.20;99.90;;;;;;5037371;28;20107;-71
2023/07/14 02:10:15;;;;;;;15.05;10.18;;;14.50;99.90;;;;;;5044365;28;20072;-70
2023/07/14 02:12:46;;;;;;;17.10;10.25;;;14.40;99.90;;;;;;5063341;28;20711;-70
2023/07/14 02:15:18;;;;;;;14.23;10.38;;;14.40;99.90;;;;;;5044101;28;20048;-70
2023/07/14 02:17:46;;;;;;;16.00;11.13;;;14.60;99.90;;;;;;5043886;28;20048;-70
2023/07/14 02:20:22;;;;;;;16.02;9.85;;;14.70;99.90;;;;;;5042491;28;20048;-70
2023/07/14 02:22:49;;;;;;;13.90;9.10;;;14.50;99.90;;;;;;5022575;28;20409;-71
2023/07/14 02:25:18;;;;;;;17.58;9.68;;;14.40;99.90;;;;;;5028467;28;20048;-70
2023/07/14 02:27:44;;;;;;;16.55;9.02;;;;;;;;;;5059010;28;20052;-70
2023/07/14 02:30:18;;;;;;;14.02;8.55;;;14.20;99.90;;;;;;5039486;28;20105;-69
2023/07/14 02:32:56;;;;;;;13.48;8.20;;;14.40;99.90;;;;;;5059192;28;20068;-70
2023/07/14 02:35:36;;;;;;;15.43;8.63;;;14.60;99.90;;;;;;5033021;28;20040;-69
2023/07/14 02:38:08;;;;;;;13.90;7.50;;;14.50;99.90;;;;;;5062190;28;20044;-70
2023/07/14 02:40:34;;;;;;;13.13;8.63;;;;;;;;;;5037429;28;20099;-70
2023/07/14 02:43:03;;;;;;;14.27;8.20;;;14.30;99.90;;;;;;5064332;28;20470;-70
2023/07/14 02:45:32;;;;;;;14.93;7.43;;;14.50;99.90;;;;;;5056335;28;20109;-70
2023/07/14 02:47:59;;;;;;;17.48;8.32;;;14.50;99.90;;;;;;5047371;28;20477;-71
2023/07/14 02:50:25;;;;;;;13.25;7.25;;;;;;;;;;5044916;28;20044;-70
2023/07/14 02:52:51;;;;;;;12.38;7.50;;;;;;;;;;5043854;28;20076;-70
2023/07/14 02:55:17;;;;;;;12.35;7.10;;;;;;;;;;5045309;28;20403;-70
2023/07/14 02:57:44;;;;;;;14.40;7.55;;;;;;;;;;5044142;28;20051;-70
2023/07/14 03:00:10;;;;;;;10.48;6.55;;;14.50;99.90;;;;;;5045855;28;20052;-70
2023/07/14 03:02:38;;;;;;;13.88;6.65;;;14.40;99.90;;;;;;5047199;28;20044;-70
2023/07/14 03:05:05;;;;;;;13.43;6.28;;;;;;;;;;5066684;28;20040;-70
2023/07/14 03:07:32;;;;;;;11.18;5.80;;;14.40;99.90;;;;;;5041946;28;20206;-70
2023/07/14 03:10:00;;;;;;;13.55;5.38;;;14.50;99.90;;;;;;5048409;28;20102;-70
2023/07/14 03:12:28;;;;;;;13.07;6.18;;;14.40;99.90;;;;;;5047737;28;20056;-70
2023/07/14 03:14:54;;;;;;;10.70;5.72;;;;;;;;;;5035818;28;20130;-70
2023/07/14 03:17:20;;;;;;;8.60;6.05;;;;;;;;;;5062498;28;20032;-70
2023/07/14 03:19:46;;;;;;;11.18;5.82;;;;;;;;;;5040252;28;20999;-70
2023/07/14 03:22:12;;;;;;;9.63;5.32;;;;;;;;;;5060825;28;20047;-70
2023/07/14 03:24:39;;;;;;;8.68;5.43;;;;;;;;;;5040767;28;20475;-70
2023/07/14 03:27:04;;;;;;;11.65;5.40;;;14.50;99.90;;;;;;5066391;28;20048;-70
2023/07/14 03:29:30;;;;;;;9.63;5.35;;;;;;;;;;5046608;28;20048;-70
2023/07/14 03:31:56;;;;;;;7.85;5.50;;;;;;;;;;5047913;28;20091;-70
2023/07/14 03:34:22;;;;;;;10.07;5.15;;;;;;;;;;5047791;28;20146;-70
2023/07/14 03:36:49;;;;;;;15.15;6.05;;;14.50;99.90;;;;;;5044827;28;20044;-70
2023/07/14 03:39:24;;;;;;;19.40;8.20;;;14.40;99.90;;;;;;5063211;28;20815;-70
2023/07/14 03:41:50;;;;;;;12.68;5.03;;;;;;;;;;5060876;28;20422;-70
2023/07/14 03:44:16;;;;;;;11.75;6.00;;;;;;;;;;5051625;28;20036;-70
2023/07/14 03:46:42;;;;;;;15.48;6.80;;;;;;;;;;5042923;28;20144;-70
2023/07/14 03:49:08;;;;;;;8.73;6.53;;;;;;;;;;5060432;28;20128;-70
2023/07/14 03:51:34;;;;;;;11.68;6.30;;;;;;;;;;5032338;28;20480;-69
2023/07/14 03:54:00;;;;;;;13.63;6.25;;;;;;;;;;5044849;28;20053;-70
2023/07/14 03:56:26;;;;;;;9.05;6.00;;;14.20;99.90;;;;;;5064015;28;20041;-70
2023/07/14 03:58:52;;;;;;;11.13;6.45;;;14.30;99.90;;;;;;5043946;28;20041;-70
2023/07/14 04:01:18;;;;;;;11.27;6.65;;;;;;;;;;5046308;28;20037;-70
2023/07/14 04:03:46;;;;;;;12.85;6.03;;;;;;;;;;5044912;28;20041;-70
2023/07/14 04:06:12;;;;;;;11.35;6.90;;;;;;;;;;5062657;28;20127;-70
2023/07/14 04:08:39;;;;;;;9.70;6.38;;;14.30;99.90;;;;;;5047096;28;20092;-70
2023/07/14 04:11:05;;;;;;;11.35;7.07;;;14.30;99.90;;;;;;5060914;28;20045;-71
2023/07/14 04:13:32;;;;;;;14.88;7.05;;;14.00;99.90;;;;;;5060985;28;20076;-70
2023/07/14 04:15:58;;;;;;;15.32;6.70;;;14.00;99.90;;;;;;5057430;28;20759;-70
2023/07/14 04:18:24;;;;;;;9.32;6.43;;;14.10;99.90;;;;;;5045927;28;20080;-71
2023/07/14 04:20:50;;;;;;;10.93;6.45;;;;;;;;;;5046222;28;20140;-70
2023/07/14 04:23:20;;;;;;;16.98;7.32;;;;;;;;;;5043152;28;20585;-70
2023/07/14 04:25:46;;;;;;;9.75;7.07;;;;;;;;;;5062021;28;20521;-70
2023/07/14 04:28:12;;;;;;;12.18;7.40;;;;;;;;;;5059296;28;20040;-71
2023/07/14 04:30:38;;;;;;;9.88;6.55;;;;;;;;;;5047149;28;20045;-70
2023/07/14 04:33:04;;;;;;;14.52;7.05;;;;;;;;;;5040166;28;20048;-70
2023/07/14 04:35:30;;;;;;;13.30;7.00;;;14.30;99.90;;;;;;5060473;28;20123;-70
2023/07/14 04:37:55;;;;;;;12.15;7.55;;;;;;;;;;5042657;28;20155;-70
2023/07/14 04:40:22;;;;;;;12.32;6.78;;;;;;;;;;5043028;28;20991;-70
2023/07/14 04:42:48;;;;;;;15.30;7.28;;;;;;;;;;5038770;28;20465;-70
2023/07/14 04:45:16;;;;;;;13.25;8.23;;;;;;;;;;5036684;28;20094;-70
2023/07/14 04:47:43;;;;;;;14.18;8.55;;;14.30;99.90;;;;;;5061407;28;20048;-70
2023/07/14 04:50:09;;;;;;;11.23;6.78;;;14.20;99.90;;;;;;5041551;28;20045;-70
2023/07/14 04:52:34;;;;;;;13.25;7.15;;;14.40;99.90;;;;;;5061614;28;20491;-70
2023/07/14 04:55:00;;;;;;;13.68;6.53;;;;;;;;;;5046682;28;20052;-70
2023/07/14 04:57:26;;;;;;;10.75;7.00;;;;;;;;;;5041621;28;20037;-70
2023/07/14 04:59:52;;;;;;;9.98;5.85;;;;;;;;;;5058783;28;20048;-69
2023/07/14 05:02:19;;;;;;;14.93;7.47;;;;;;;;;;5042419;28;20047;-70
2023/07/14 05:05:09;;;;;;;11.35;6.40;;;14.90;99.90;;;;;;5044734;28;20040;-71
2023/07/14 05:07:35;;;;;;;10.50;6.53;;;15.10;99.90;;;;;;5058160;28;20429;-70
2023/07/14 05:10:01;;;;;;;11.43;6.15;;;;;;;;;;5064694;28;20041;-71
2023/07/14 05:12:27;;;;;;;14.73;6.20;;;;;;;;;;5054498;28;20044;-70
2023/07/14 05:14:53;;;;;;;11.02;6.10;;;;;;;;;;5023066;28;20054;-70
2023/07/14 05:17:18;;;;;;;8.32;5.60;;;15.30;99.90;;;;;;5044039;28;20458;-71
2023/07/14 05:19:44;;;;;;;11.68;6.53;;;;;;;;;;5063784;28;20131;-70
2023/07/14 05:22:10;;;;;;;12.75;8.57;;;;;;;;;;5046731;28;20048;-70
2023/07/14 05:24:36;;;;;;;12.15;6.90;;;15.20;99.90;;;;;;5041536;28;20057;-69
2023/07/14 05:27:02;;;;;;;9.85;7.18;;;;;;;;;;5039199;28;20116;-71
2023/07/14 05:29:28;;;;;;;10.50;7.03;;;;;;;;;;5040461;28;20155;-70
2023/07/14 05:31:55;;;;;;;13.73;7.65;;;;;;;;;;5061813;28;20044;-71
2023/07/14 05:34:21;;;;;;;10.18;7.28;;;;;;;;;;5064086;28;20051;-70
2023/07/14 05:36:47;;;;;;;13.07;6.80;;;;;;;;;;5062502;28;20037;-69
2023/07/14 05:39:13;;;;;;;10.93;6.75;;;;;;;;;;5046404;28;20114;-69
2023/07/14 05:41:39;;;;;;;15.18;7.07;;;;;;;;;;5039652;28;20044;-69
2023/07/14 05:44:05;;;;;;;9.57;5.95;;;15.80;99.90;;;;;;5060262;28;20141;-70
2023/07/14 05:46:31;;;;;;;9.40;6.50;;;;;;;;;;5064149;28;20032;-69
2023/07/14 05:48:56;;;;;;;10.95;6.13;;;17.10;99.90;;;;;;5045265;28;20040;-70
2023/07/14 05:51:22;;;;;;;9.10;5.22;;;;;;;;;;5042506;28;20414;-70
2023/07/14 05:53:48;;;;;;;12.27;5.70;;;;;;;;;;5059148;28;20138;-69
2023/07/14 05:56:14;;;;;;;8.80;5.13;;;;;;;;;;5063171;28;20474;-70
2023/07/14 05:58:40;;;;;;;9.70;4.82;;;19.10;99.90;;;;;;5060097;28;20037;-68
2023/07/14 06:01:07;;;;;;;10.02;4.47;;;;;;;;;;5055489;28;20052;-70
2023/07/14 06:03:33;;;;;;;8.10;4.88;;;20.10;99.90;;;;;;5062653;28;20101;-69
2023/07/14 06:06:03;;;;;;;8.52;4.00;;;20.40;99.90;;;;;;5047665;28;20480;-70
2023/07/14 06:08:28;;;;;;;9.52;4.40;;;20.50;99.90;;;;;;5039643;28;20543;-70
2023/07/14 06:10:55;;;;;;;6.47;4.20;;;20.80;99.90;;;;;;5025185;28;20057;-70
2023/07/14 06:13:21;;;;;;;12.65;4.45;;;21.20;99.90;;;;;;5047329;28;20067;-71
2023/07/14 06:15:51;;;;;;;9.40;4.32;;;21.10;99.90;;;;;;5041809;28;20047;-70
2023/07/14 06:18:17;;;;;;;11.80;4.38;;;21.00;99.90;;;;;;5038686;28;20044;-72
2023/07/14 06:20:43;;;;;;;6.22;3.90;;;21.40;99.90;;;;;;5060434;28;20058;-71
2023/07/14 06:23:09;;;;;;;8.88;4.90;;;22.10;99.90;;;;;;5065066;28;20048;-70
2023/07/14 06:25:34;;;;;;;7.88;4.25;;;22.20;99.90;;;;;;5046071;28;20056;-73
2023/07/14 06:28:01;;;;;;;9.55;4.07;;;22.00;99.90;;;;;;5063531;28;20151;-71
2023/07/14 06:30:26;;;;;;;8.18;4.30;;;21.90;99.90;;;;;;5064108;28;20083;-71
2023/07/14 06:32:52;;;;;;;7.72;4.65;;;22.30;99.90;;;;;;5061699;28;20762;-71
2023/07/14 06:35:18;;;;;;;8.95;4.50;;;22.40;99.90;;;;;;5035085;28;20095;-74
2023/07/14 06:37:44;;;;;;;13.90;5.00;;;22.60;99.90;;;;;;5052191;28;20498;-74
2023/07/14 06:40:10;;;;;;;12.45;5.18;;;22.80;99.90;;;;;;5035477;28;20033;-74
2023/07/14 06:42:36;;;;;;;10.30;4.20;;;23.10;99.90;;;;;;5041549;28;20040;-70
2023/07/14 06:45:03;;;;;;;10.07;4.53;;;23.00;99.90;;;;;;5043283;28;20056;-71
2023/07/14 06:47:30;;;;;;;10.60;5.20;;;22.80;99.90;;;;;;5047634;28;20052;-70
2023/07/14 06:49:56;;;;;;;7.25;4.28;;;22.20;99.90;;;;;;5034686;28;20041;-70
2023/07/14 06:52:22;;;;;;;8.50;4.78;;;21.50;99.90;;;;;;5058158;28;20064;-70
2023/07/14 06:54:48;;;;;;;8.38;4.78;;;20.90;99.90;;;;;;5058983;28;20460;-70
2023/07/14 06:57:14;;;;;;;10.15;5.35;;;20.40;99.90;;;;;;5044500;28;20040;-70
2023/07/14 06:59:41;;;;;;;9.50;5.78;;;20.10;99.90;;;;;;5040109;28;20067;-72
2023/07/14 07:02:09;;;;;;;14.48;6.40;;;19.60;99.90;;;;;;5043470;28;20044;-70
2023/07/14 07:04:35;;;;;;;9.65;5.03;;;19.50;99.90;;;;;;5039213;28;20125;-72
2023/07/14 07:07:01;;;;;;;9.52;5.57;;;19.30;99.90;;;;;;5038918;28;20048;-70
2023/07/14 07:09:27;;;;;;;9.07;4.88;;;19.20;99.90;;;;;;5041265;28;20114;-70
2023/07/14 07:11:53;;;;;;;9.00;4.95;;;19.10;99.90;;;;;;5029379;28;20076;-70
2023/07/14 07:14:19;;;;;;;11.02;5.70;;;;;;;;;;5059908;28;20072;-71
2023/07/14 07:16:45;;;;;;;6.05;4.53;;;18.80;99.90;;;;;;5031569;28;20101;-70
2023/07/14 07:19:11;;;;;;;10.32;5.30;;;;;;;;;;5060978;28;20097;-72
2023/07/14 07:21:36;;;;;;;11.50;5.68;;;18.90;99.90;;;;;;5044145;28;20579;-70
2023/07/14 07:24:06;;;;;;;11.45;5.32;;;18.70;99.90;;;;;;5056398;28;20040;-71
2023/07/14 07:26:32;;;;;;;9.80;5.20;;;18.70;99.90;;;;;;5031939;28;20051;-70
2023/07/14 07:28:58;;;;;;;10.02;5.50;;;;;;;;;;5050253;28;20045;-71
2023/07/14 07:31:24;;;;;;;9.68;5.80;;;;;;;;;;5059781;28;20396;-70
2023/07/14 07:33:49;;;;;;;8.70;5.88;;;18.70;99.90;;;;;;5036427;28;20047;-70
2023/07/14 07:36:16;;;;;;;9.55;5.30;;;18.90;99.90;;;;;;5062463;28;20063;-70
2023/07/14 07:38:47;;;;;;;10.90;5.50;;;18.90;99.90;;;;;;5057992;28;20044;-71
2023/07/14 07:41:18;;;;;;;9.30;5.35;;;18.90;99.90;;;;;;5048438;28;20037;-71
2023/07/14 07:43:44;;;;;;;9.15;5.03;;;19.10;99.90;;;;;;5031254;28;20045;-70
2023/07/14 07:46:10;;;;;;;10.13;5.18;;;;;;;;;;5056261;28;20044;-70
2023/07/14 07:48:37;;;;;;;13.27;4.07;;;;;;;;;;5024330;28;20048;-70
2023/07/14 07:51:06;;;;;;;8.07;3.10;;;19.10;99.90;;;;;;5061034;28;20127;-70
2023/07/14 07:53:32;;;;;;;5.95;2.00;;;19.00;99.90;;;;;;5061977;28;20068;-70
2023/07/14 07:55:59;;;;;;;8.70;2.20;;;19.30;99.90;;;;;;5039478;28;20486;-71
2023/07/14 07:58:25;;;;;;;7.32;3.30;;;19.20;99.90;;;;;;5042021;28;20040;-70
2023/07/14 08:00:57;;;;;;;8.45;3.53;;;19.30;99.90;;;;;;5060771;28;20299;-70
2023/07/14 08:03:23;;;;;;;7.68;3.35;;;;;;;;;;5045224;28;20032;-70
2023/07/14 08:05:50;;;;;;;5.45;2.88;;;19.20;99.90;;;;;;5063318;28;20546;-71
2023/07/14 08:08:15;;;;;;;6.75;2.97;;;19.20;99.90;;;;;;5060712;28;20165;-70
2023/07/14 08:10:43;;;;;;;5.57;3.05;;;19.30;99.90;;;;;;5027640;28;20152;-70
2023/07/14 08:13:10;;;;;;;5.93;2.63;;;19.40;99.90;;;;;;5033806;28;20047;-70
2023/07/14 08:15:38;;;;;;;9.43;3.38;;;19.30;99.90;;;;;;5042481;28;20045;-71
2023/07/14 08:18:06;;;;;;;10.85;3.05;;;19.20;99.90;;;;;;5029217;28;20128;-70
2023/07/14 08:20:32;;;;;;;7.60;3.92;;;19.40;99.90;;;;;;5063723;28;20051;-70
2023/07/14 08:23:02;;;;;;;6.10;2.60;;;19.60;99.90;;;;;;5041739;28;20049;-70
2023/07/14 08:25:28;;;;;;;8.38;2.70;;;19.50;99.90;;;;;;5057361;28;20418;-70
2023/07/14 08:27:54;;;;;;;6.18;3.38;;;;;;;;;;5035098;28;20044;-70
2023/07/14 08:30:20;;;;;;;3.92;2.40;;;19.70;99.90;;;;;;5053749;28;20044;-69
2023/07/14 08:32:49;;;;;;;5.43;2.38;;;;;;;;;;5050909;28;20032;-67
2023/07/14 08:35:19;;;;;;;6.18;2.88;;;19.80;99.90;;;;;;5075638;22;20153;-68
2023/07/14 08:37:45;;;;;;;5.80;2.40;;;19.90;99.90;;;;;;5041149;28;20049;-68
2023/07/14 08:40:20;;;;;;;6.45;2.50;;;20.00;99.90;;;;;;5042097;28;20478;-67
2023/07/14 08:43:24;;;;;;;7.07;2.72;;;20.00;99.90;;;;;;5059824;28;20368;-67
2023/07/14 08:46:03;;;;;;;5.22;2.35;;;19.90;99.90;;;;;;5024658;28;20474;-68
2023/07/14 08:48:39;;;;;;;3.60;2.50;;;19.90;99.90;;;;;;5023690;28;20042;-67
2023/07/14 08:51:22;;;;;;;5.18;2.35;;;20.00;99.90;;;;;;5022635;28;20076;-68
2023/07/14 08:53:55;;;;;;;5.57;2.97;;;19.90;99.90;;;;;;5025671;28;20049;-68
2023/07/14 08:56:22;;;;;;;6.13;3.47;;;19.70;99.90;;;;;;5024301;28;20124;-68
2023/07/14 08:58:51;;;;;;;8.23;3.22;;;19.80;99.90;;;;;;5021947;28;20069;-67
2023/07/14 09:01:42;;;;;;;6.30;2.80;;;20.00;99.90;;;;;;5021801;28;20049;-68
2023/07/14 09:04:21;;;;;;;7.38;3.08;;;20.10;99.90;;;;;;5023725;28;20041;-67
2023/07/14 09:06:47;;;;;;;7.18;3.35;;;20.20;99.90;;;;;;5025633;28;20037;-68
2023/07/14 09:09:18;;;;;;;9.32;2.65;;;20.40;99.90;;;;;;5021310;28;20410;-68
2023/07/14 09:12:28;;;;;;;4.60;2.55;;;20.30;99.90;;;;;;5023396;28;20056;-67
2023/07/14 09:15:27;;;;;;;7.93;3.08;;;20.40;99.90;;;;;;4982946;28;20100;-67
2023/07/14 09:18:27;;;;;;;4.38;2.78;;;20.40;99.90;;;;;;5018527;28;20049;-67
2023/07/14 09:21:23;;;;;;;9.77;3.08;;;20.50;99.90;;;;;;5021237;28;20609;-68
2023/07/14 09:24:12;;;;;;;7.18;2.70;;;20.50;99.90;;;;;;5024105;28;20085;-68
2023/07/14 09:26:53;;;;;;;6.13;3.13;;;20.80;99.90;;;;;;5023613;28;20140;-67
2023/07/14 09:29:28;;;;;;;5.85;2.97;;;20.90;99.90;;;;;;5017463;28;20048;-67
2023/07/14 09:32:00;;;;;;;11.73;3.30;;;20.70;99.90;;;;;;5023504;28;20056;-68
2023/07/14 09:34:32;;;;;;;7.72;3.72;;;20.90;99.90;;;;;;5021781;28;20415;-68
2023/07/14 09:36:58;;;;;;;5.90;2.97;;;21.20;99.90;;;;;;5025223;28;20673;-68
2023/07/14 09:39:42;;;;;;;9.35;3.45;;;20.60;99.90;;;;;;5025480;28;20053;-68
2023/07/14 09:42:26;;;;;;;4.90;2.47;;;20.70;99.90;;;;;;5019893;28;20498;-68
2023/07/14 09:45:08;;;;;;;5.35;3.25;;;20.70;99.90;;;;;;5024114;28;20056;-67
2023/07/14 09:47:35;;;;;;;5.88;2.50;;;20.70;99.90;;;;;;5019550;28;20618;-68
2023/07/14 09:50:01;;;;;;;8.88;3.10;;;20.80;99.90;;;;;;5025730;28;20060;-68
2023/07/14 09:52:28;;;;;;;6.72;2.78;;;20.70;99.90;;;;;;5024041;28;20507;-68
2023/07/14 09:54:57;;;;;;;5.50;2.58;;;20.60;99.90;;;;;;5028882;28;20495;-67
2023/07/14 09:57:30;;;;;;;6.55;2.50;;;20.80;99.90;;;;;;5028614;28;21498;-67
2023/07/14 09:59:58;;;;;;;6.07;2.95;;;20.60;99.90;;;;;;5020261;28;20041;-68
2023/07/14 10:02:32;;;;;;;7.40;2.92;;;20.40;99.90;;;;;;5024349;28;20793;-68
2023/07/14 10:05:36;;;;;;;7.38;3.30;;;20.80;99.90;;;;;;5028148;28;20036;-68
2023/07/14 10:08:21;;;;;;;7.43;3.15;;;20.60;99.90;;;;;;5027134;28;20048;-68
2023/07/14 10:10:47;;;;;;;5.25;2.83;;;20.70;99.90;;;;;;5023441;28;20407;-67
2023/07/14 10:13:22;;;;;;;7.25;2.78;;;21.10;99.90;;;;;;5026297;28;20034;-67
2023/07/14 10:15:53;;;;;;;;;;;21.30;99.90;;;;;;5025216;28;20095;-68
2023/07/14 10:18:19;;;;;;;8.73;3.30;;;21.10;99.90;;;;;;5024517;28;19935;-67
2023/07/14 10:21:05;;;;;;;9.70;3.15;;;21.20;99.90;;;;;;5025675;28;20034;-68
2023/07/14 10:23:31;;;;;;;7.22;2.40;;;21.00;99.90;;;;;;5028365;28;20044;-68
2023/07/14 10:25:57;;;;;;;5.20;2.78;;;21.10;99.90;;;;;;5028051;28;20041;-68
2023/07/14 10:28:28;;;;;;;5.18;2.83;;;21.10;99.90;;;;;;5026882;28;20111;-68
2023/07/14 10:31:12;;;;;;;8.48;3.30;;;21.10;99.90;;;;;;5020753;28;20037;-67
2023/07/14 10:34:11;;;;;;;5.82;3.20;;;21.00;99.90;;;;;;5024764;28;20054;-67
2023/07/14 10:36:39;;;;;;;5.93;2.85;;;21.20;99.90;;;;;;5027099;28;20045;-67
2023/07/14 10:39:18;;;;;;;5.47;2.72;;;21.40;99.90;;;;;;5026757;28;20504;-67
2023/07/14 10:41:45;;;;;;;8.77;3.20;;;21.00;99.90;;;;;;5024845;28;20053;-68
2023/07/14 10:44:34;;;;;;;6.82;3.35;;;21.40;99.90;;;;;;5028241;28;20037;-68
2023/07/14 10:47:07;;;;;;;5.28;3.38;;;21.60;99.90;;;;;;5027883;28;20593;-67
2023/07/14 10:49:40;;;;;;;4.68;2.65;;;21.70;99.90;;;;;;5023776;28;20120;-68
2023/07/14 10:52:12;;;;;;;6.03;3.42;;;21.60;99.90;;;;;;5023988;28;20754;-67
2023/07/14 10:55:12;;;;;;;4.65;2.95;;;21.80;99.90;;;;;;5025759;28;20038;-68
2023/07/14 10:57:56;;;;;;;6.85;3.50;;;21.90;99.90;;;;;;5027324;28;20052;-68
2023/07/14 11:00:45;;;;;;;6.28;3.22;;;21.70;99.90;;;;;;5023965;28;20064;-68
2023/07/14 11:03:22;;;;;;;7.93;2.67;;;21.90;99.90;;;;;;5023411;28;20041;-68
2023/07/14 11:06:00;;;;;;;5.13;2.83;;;21.80;99.90;;;;;;5023750;28;20512;-68
2023/07/14 11:08:29;;;;;;;6.57;2.88;;;21.60;99.90;;;;;;5027189;28;20041;-68
2023/07/14 11:11:00;;;;;;;5.10;3.58;;;21.60;99.90;;;;;;5024064;28;20153;-68
2023/07/14 11:13:53;;;;;;;7.05;3.13;;;21.40;99.90;;;;;;5025827;28;20205;-68
2023/07/14 11:16:52;;;;;;;5.78;2.45;;;21.30;99.90;;;;;;5027019;28;20044;-68
2023/07/14 11:19:44;;;;;;;6.80;2.70;;;21.50;99.90;;;;;;5023945;28;20041;-68
2023/07/14 11:22:45;;;;;;;5.90;3.58;;;21.50;99.90;;;;;;5027352;28;20052;-67
2023/07/14 11:25:38;;;;;;;7.80;3.17;;;21.50;99.90;;;;;;4996862;28;20057;-68
2023/07/14 11:28:30;;;;;;;6.68;3.90;;;21.70;99.90;;;;;;5021260;28;20829;-67
2023/07/14 11:31:00;;;;;;;7.88;3.28;;;21.90;99.90;;;;;;5022906;28;20372;-67
2023/07/14 11:33:45;;;;;;;6.63;3.33;;;21.40;99.90;;;;;;5021658;28;20064;-67
2023/07/14 11:36:28;;;;;;;7.25;3.20;;;21.50;99.90;;;;;;5025288;28;20045;-67
2023/07/14 11:39:05;;;;;;;10.35;3.63;;;21.60;99.90;;;;;;5020477;28;20095;-68
2023/07/14 11:41:33;;;;;;;7.38;3.50;;;21.60;99.90;;;;;;5024670;28;20042;-67
2023/07/14 11:44:02;;;;;;;7.43;3.50;;;21.40;99.90;;;;;;5025769;28;20047;-67
2023/07/14 11:46:29;;;;;;;7.75;4.15;;;21.80;99.90;;;;;;5026338;28;20442;-72
2023/07/14 11:48:54;;;;;;;9.20;3.40;;;21.70;99.90;;;;;;5024723;28;20041;-67
2023/07/14 11:51:41;;;;;;;7.90;3.85;;;21.70;99.90;;;;;;5023799;28;20815;-66
2023/07/14 11:54:13;;;;;;;6.47;3.78;;;22.00;99.90;;;;;;5024819;28;20851;-66
2023/07/14 11:56:40;;;;;;;8.35;3.70;;;22.00;99.90;;;;;;5020884;28;20038;-67
2023/07/14 11:59:20;;;;;;;6.65;3.67;;;22.00;99.90;;;;;;5025562;28;20107;-67
2023/07/14 12:01:51;;;;;;;11.50;3.53;;;22.20;99.90;;;;;;5025103;28;20057;-67
2023/07/14 12:04:33;;;;;;;7.88;3.20;;;22.10;99.90;;;;;;5025884;28;20114;-67
2023/07/14 12:07:16;;;;;;;7.53;3.42;;;22.00;99.90;;;;;;5026224;28;20046;-67
2023/07/14 12:10:08;;;;;;;11.93;3.75;;;22.10;99.90;;;;;;5023209;28;20093;-66
2023/07/14 12:12:34;;;;;;;10.15;4.10;;;22.20;99.90;;;;;;5022020;28;20045;-67
2023/07/14 12:15:00;;;;;;;7.75;3.53;;;22.50;99.90;;;;;;5023629;28;20048;-66
2023/07/14 12:17:52;;;;;;;7.22;3.70;;;22.20;99.90;;;;;;5026065;28;20037;-66
2023/07/14 12:20:28;;;;;;;9.05;4.10;;;22.20;99.90;;;;;;5018394;28;20045;-67
2023/07/14 12:23:11;;;;;;;7.22;3.38;;;22.40;99.90;;;;;;5025576;28;20492;-66
2023/07/14 12:25:50;;;;;;;7.72;3.45;;;22.20;99.90;;;;;;5026416;28;20042;-66
2023/07/14 12:28:32;;;;;;;8.63;3.78;;;22.00;99.90;;;;;;5024479;28;20523;-66
2023/07/14 12:31:02;;;;;;;9.65;4.28;;;22.10;99.90;;;;;;5022303;28;20041;-67
2023/07/14 12:33:28;;;;;;;5.18;3.33;;;22.00;99.90;;;;;;5026013;28;20057;-66
2023/07/14 12:35:53;;;;;;;12.05;4.22;;;22.20;99.90;;;;;;5024523;28;20427;-67
2023/07/14 12:38:22;;;;;;;6.85;3.28;;;22.20;99.90;;;;;;5023876;28;20048;-66
2023/07/14 12:40:51;;;;;;;9.82;4.28;;;22.30;99.90;;;;;;5023446;28;20045;-66
2023/07/14 12:43:52;;;;;;;9.05;3.97;;;21.80;99.90;;;;;;5025846;28;20041;-66
2023/07/14 12:46:35;;;;;;;7.75;3.58;;;21.80;99.90;;;;;;5025732;28;20041;-66
2023/07/14 12:49:02;;;;;;;7.10;3.80;;;21.90;99.90;;;;;;5025333;28;20438;-66
2023/07/14 12:51:29;;;;;;;7.32;3.83;;;21.70;99.90;;;;;;5025479;28;20128;-67
2023/07/14 12:54:00;;;;;;;8.63;4.15;;;21.70;99.90;;;;;;5025253;28;20043;-67
2023/07/14 12:56:29;;;;;;;10.18;3.97;;;21.90;99.90;;;;;;5021534;28;20045;-66
2023/07/14 12:58:55;;;;;;;6.25;3.20;;;22.00;99.90;;;;;;5023718;28;20131;-67
2023/07/14 13:01:20;;;;;;;8.55;3.88;;;22.10;99.90;;;;;;5044081;28;20047;-66
2023/07/14 13:03:46;;;;;;;10.38;4.80;;;22.00;99.90;;;;;;5025732;28;20045;-67
2023/07/14 13:06:16;;;;;;;8.88;4.13;;;22.10;99.90;;;;;;5025744;28;20056;-67
2023/07/14 13:08:46;;;;;;;6.00;3.38;;;21.80;99.90;;;;;;5023087;28;20049;-67
2023/07/14 13:11:21;;;;;;;6.85;3.75;;;21.70;99.90;;;;;;5020940;28;20128;-67
2023/07/14 13:13:54;;;;;;;10.85;4.18;;;21.80;99.90;;;;;;5023193;28;20492;-66
2023/07/14 13:16:24;;;;;;;11.20;4.22;;;22.00;99.90;;;;;;5042515;28;20160;-66
2023/07/14 13:18:58;;;;;;;10.02;4.45;;;21.90;99.90;;;;;;5025928;28;20102;-66
2023/07/14 13:21:36;;;;;;;10.73;4.25;;;21.70;99.90;;;;;;5023751;28;20045;-67
2023/07/14 13:24:17;;;;;;;8.38;4.07;;;21.60;99.90;;;;;;5025366;28;20037;-66
2023/07/14 13:26:53;;;;;;;6.82;3.78;;;21.60;99.90;;;;;;5020089;28;20048;-66